Aviation Digital Data Service (ADDS)

Output produced by METARs form (1810 UTC 18 April 2014)
found at http://aviationweather.gov/adds/metars/
 
KCRG 181721Z 1818/1918 12013G21KT 2SM RA BR OVC007 
     FM190400 18013G20KT 3SM -SHRA BR BKN010